sensor_id;sensor_type;location;lat;lon;timestamp;P1;durP1;ratioP1;P2;durP2;ratioP2
10293;SDS011;5192;50.328;7.610;2023-08-06T00:02:07;4.50;;;3.73;;
10293;SDS011;5192;50.328;7.610;2023-08-06T00:04:35;4.47;;;4.07;;
10293;SDS011;5192;50.328;7.610;2023-08-06T00:07:01;5.13;;;4.30;;
10293;SDS011;5192;50.328;7.610;2023-08-06T00:09:32;4.70;;;4.17;;
10293;SDS011;5192;50.328;7.610;2023-08-06T00:11:59;5.23;;;3.97;;
10293;SDS011;5192;50.328;7.610;2023-08-06T00:14:26;5.10;;;4.20;;
10293;SDS011;5192;50.328;7.610;2023-08-06T00:16:52;4.23;;;3.83;;
10293;SDS011;5192;50.328;7.610;2023-08-06T00:19:18;4.37;;;3.93;;
10293;SDS011;5192;50.328;7.610;2023-08-06T00:21:46;5.27;;;4.10;;
10293;SDS011;5192;50.328;7.610;2023-08-06T00:24:13;5.63;;;4.73;;
10293;SDS011;5192;50.328;7.610;2023-08-06T00:26:40;4.80;;;4.30;;
10293;SDS011;5192;50.328;7.610;2023-08-06T00:29:07;5.63;;;4.23;;
10293;SDS011;5192;50.328;7.610;2023-08-06T00:31:35;4.70;;;4.30;;
10293;SDS011;5192;50.328;7.610;2023-08-06T00:34:02;4.60;;;4.13;;
10293;SDS011;5192;50.328;7.610;2023-08-06T00:36:29;4.97;;;4.30;;
10293;SDS011;5192;50.328;7.610;2023-08-06T00:38:56;5.10;;;4.63;;
10293;SDS011;5192;50.328;7.610;2023-08-06T00:41:24;4.67;;;4.27;;
10293;SDS011;5192;50.328;7.610;2023-08-06T00:43:51;10.87;;;5.07;;
10293;SDS011;5192;50.328;7.610;2023-08-06T00:46:16;6.10;;;4.40;;
10293;SDS011;5192;50.328;7.610;2023-08-06T00:48:43;4.90;;;4.40;;
10293;SDS011;5192;50.328;7.610;2023-08-06T00:51:17;4.80;;;4.37;;
10293;SDS011;5192;50.328;7.610;2023-08-06T00:53:44;4.47;;;4.07;;
10293;SDS011;5192;50.328;7.610;2023-08-06T00:56:12;5.00;;;4.50;;
10293;SDS011;5192;50.328;7.610;2023-08-06T00:58:40;5.43;;;4.40;;
10293;SDS011;5192;50.328;7.610;2023-08-06T01:01:07;4.37;;;3.97;;
10293;SDS011;5192;50.328;7.610;2023-08-06T01:03:34;6.23;;;4.23;;
10293;SDS011;5192;50.328;7.610;2023-08-06T01:06:01;4.33;;;3.90;;
10293;SDS011;5192;50.328;7.610;2023-08-06T01:14:45;5.77;;;4.57;;
10293;SDS011;5192;50.328;7.610;2023-08-06T01:17:29;5.77;;;4.20;;
10293;SDS011;5192;50.328;7.610;2023-08-06T01:19:57;5.37;;;4.10;;
10293;SDS011;5192;50.328;7.610;2023-08-06T01:22:24;4.73;;;4.07;;
10293;SDS011;5192;50.328;7.610;2023-08-06T01:24:50;4.70;;;4.30;;
10293;SDS011;5192;50.328;7.610;2023-08-06T01:33:06;4.77;;;4.20;;
10293;SDS011;5192;50.328;7.610;2023-08-06T01:35:39;4.80;;;4.40;;
10293;SDS011;5192;50.328;7.610;2023-08-06T01:38:07;5.20;;;4.60;;
10293;SDS011;5192;50.328;7.610;2023-08-06T01:40:33;5.63;;;4.07;;
10293;SDS011;5192;50.328;7.610;2023-08-06T01:43:01;6.03;;;4.23;;
10293;SDS011;5192;50.328;7.610;2023-08-06T01:45:27;4.03;;;3.73;;
10293;SDS011;5192;50.328;7.610;2023-08-06T01:47:54;4.93;;;3.70;;
10293;SDS011;5192;50.328;7.610;2023-08-06T01:50:21;4.43;;;3.67;;
10293;SDS011;5192;50.328;7.610;2023-08-06T01:52:49;7.27;;;4.07;;
10293;SDS011;5192;50.328;7.610;2023-08-06T01:55:15;4.30;;;3.57;;
10293;SDS011;5192;50.328;7.610;2023-08-06T01:57:41;3.97;;;3.63;;
10293;SDS011;5192;50.328;7.610;2023-08-06T02:00:08;6.33;;;3.67;;
10293;SDS011;5192;50.328;7.610;2023-08-06T02:02:35;4.27;;;3.53;;
10293;SDS011;5192;50.328;7.610;2023-08-06T02:05:00;4.20;;;3.50;;
10293;SDS011;5192;50.328;7.610;2023-08-06T02:07:28;4.03;;;3.40;;
10293;SDS011;5192;50.328;7.610;2023-08-06T02:09:56;4.63;;;3.40;;
10293;SDS011;5192;50.328;7.610;2023-08-06T02:12:23;4.93;;;3.30;;
10293;SDS011;5192;50.328;7.610;2023-08-06T02:14:51;4.00;;;3.53;;
10293;SDS011;5192;50.328;7.610;2023-08-06T02:17:20;5.17;;;3.17;;
10293;SDS011;5192;50.328;7.610;2023-08-06T02:19:48;3.83;;;3.23;;
10293;SDS011;5192;50.328;7.610;2023-08-06T02:22:14;4.97;;;3.30;;
10293;SDS011;5192;50.328;7.610;2023-08-06T02:24:42;3.67;;;3.37;;
10293;SDS011;5192;50.328;7.610;2023-08-06T02:27:07;3.60;;;3.30;;
10293;SDS011;5192;50.328;7.610;2023-08-06T02:29:35;4.07;;;3.20;;
10293;SDS011;5192;50.328;7.610;2023-08-06T02:32:04;5.93;;;3.70;;
10293;SDS011;5192;50.328;7.610;2023-08-06T02:34:31;3.73;;;2.53;;
10293;SDS011;5192;50.328;7.610;2023-08-06T02:36:57;4.40;;;3.10;;
10293;SDS011;5192;50.328;7.610;2023-08-06T02:39:25;4.43;;;2.80;;
10293;SDS011;5192;50.328;7.610;2023-08-06T02:41:52;3.57;;;2.63;;
10293;SDS011;5192;50.328;7.610;2023-08-06T02:44:19;3.73;;;2.93;;
10293;SDS011;5192;50.328;7.610;2023-08-06T02:46:46;6.10;;;2.87;;
10293;SDS011;5192;50.328;7.610;2023-08-06T02:49:13;6.90;;;2.97;;
10293;SDS011;5192;50.328;7.610;2023-08-06T02:51:41;3.67;;;2.77;;
10293;SDS011;5192;50.328;7.610;2023-08-06T02:54:06;5.57;;;2.80;;
10293;SDS011;5192;50.328;7.610;2023-08-06T02:56:32;4.00;;;2.70;;
10293;SDS011;5192;50.328;7.610;2023-08-06T02:58:59;6.23;;;2.90;;
10293;SDS011;5192;50.328;7.610;2023-08-06T03:01:26;3.60;;;2.57;;
10293;SDS011;5192;50.328;7.610;2023-08-06T03:03:54;3.07;;;2.67;;
10293;SDS011;5192;50.328;7.610;2023-08-06T03:06:24;3.33;;;2.30;;
10293;SDS011;5192;50.328;7.610;2023-08-06T03:08:53;3.80;;;2.80;;
10293;SDS011;5192;50.328;7.610;2023-08-06T03:11:20;3.73;;;2.80;;
10293;SDS011;5192;50.328;7.610;2023-08-06T03:13:49;3.40;;;2.70;;
10293;SDS011;5192;50.328;7.610;2023-08-06T03:16:15;3.67;;;2.93;;
10293;SDS011;5192;50.328;7.610;2023-08-06T03:18:43;3.93;;;2.70;;
10293;SDS011;5192;50.328;7.610;2023-08-06T03:21:11;4.27;;;2.77;;
10293;SDS011;5192;50.328;7.610;2023-08-06T03:23:39;3.00;;;2.70;;
10293;SDS011;5192;50.328;7.610;2023-08-06T03:26:06;4.83;;;3.40;;
10293;SDS011;5192;50.328;7.610;2023-08-06T03:28:34;3.20;;;2.90;;
10293;SDS011;5192;50.328;7.610;2023-08-06T03:31:04;3.03;;;2.73;;
10293;SDS011;5192;50.328;7.610;2023-08-06T03:33:31;3.10;;;2.80;;
10293;SDS011;5192;50.328;7.610;2023-08-06T03:35:57;4.53;;;3.10;;
10293;SDS011;5192;50.328;7.610;2023-08-06T03:38:25;4.10;;;3.17;;
10293;SDS011;5192;50.328;7.610;2023-08-06T03:40:52;3.13;;;2.70;;
10293;SDS011;5192;50.328;7.610;2023-08-06T03:43:19;3.67;;;3.20;;
10293;SDS011;5192;50.328;7.610;2023-08-06T03:45:45;5.63;;;3.03;;
10293;SDS011;5192;50.328;7.610;2023-08-06T03:48:10;3.70;;;3.03;;
10293;SDS011;5192;50.328;7.610;2023-08-06T03:50:40;4.83;;;3.27;;
10293;SDS011;5192;50.328;7.610;2023-08-06T03:53:08;5.40;;;3.43;;
10293;SDS011;5192;50.328;7.610;2023-08-06T03:55:35;3.77;;;3.40;;
10293;SDS011;5192;50.328;7.610;2023-08-06T03:58:03;4.83;;;3.20;;
10293;SDS011;5192;50.328;7.610;2023-08-06T04:00:30;4.53;;;3.50;;
10293;SDS011;5192;50.328;7.610;2023-08-06T04:02:58;5.40;;;3.30;;
10293;SDS011;5192;50.328;7.610;2023-08-06T04:05:24;4.70;;;3.27;;
10293;SDS011;5192;50.328;7.610;2023-08-06T04:07:51;3.57;;;3.27;;
10293;SDS011;5192;50.328;7.610;2023-08-06T04:10:19;5.43;;;3.30;;
10293;SDS011;5192;50.328;7.610;2023-08-06T04:12:47;3.43;;;2.83;;
10293;SDS011;5192;50.328;7.610;2023-08-06T04:15:14;4.63;;;3.40;;
10293;SDS011;5192;50.328;7.610;2023-08-06T04:17:41;3.83;;;3.00;;
10293;SDS011;5192;50.328;7.610;2023-08-06T04:20:08;7.13;;;3.30;;
10293;SDS011;5192;50.328;7.610;2023-08-06T04:22:36;4.67;;;2.97;;
10293;SDS011;5192;50.328;7.610;2023-08-06T04:25:02;3.80;;;2.60;;
10293;SDS011;5192;50.328;7.610;2023-08-06T04:27:30;4.00;;;2.67;;
10293;SDS011;5192;50.328;7.610;2023-08-06T04:29:58;3.63;;;2.50;;
10293;SDS011;5192;50.328;7.610;2023-08-06T04:32:26;5.13;;;2.37;;
10293;SDS011;5192;50.328;7.610;2023-08-06T04:34:55;3.27;;;2.60;;
10293;SDS011;5192;50.328;7.610;2023-08-06T04:37:22;5.37;;;2.57;;
10293;SDS011;5192;50.328;7.610;2023-08-06T04:39:50;3.97;;;2.60;;
10293;SDS011;5192;50.328;7.610;2023-08-06T04:42:18;3.30;;;2.30;;
10293;SDS011;5192;50.328;7.610;2023-08-06T04:44:44;3.30;;;2.20;;
10293;SDS011;5192;50.328;7.610;2023-08-06T04:47:11;6.10;;;2.40;;
10293;SDS011;5192;50.328;7.610;2023-08-06T04:49:38;2.73;;;2.13;;
10293;SDS011;5192;50.328;7.610;2023-08-06T04:52:06;5.30;;;2.10;;
10293;SDS011;5192;50.328;7.610;2023-08-06T04:54:33;2.13;;;1.90;;
10293;SDS011;5192;50.328;7.610;2023-08-06T04:57:00;2.80;;;2.10;;
10293;SDS011;5192;50.328;7.610;2023-08-06T04:59:28;5.80;;;2.30;;
10293;SDS011;5192;50.328;7.610;2023-08-06T05:01:55;2.57;;;1.57;;
10293;SDS011;5192;50.328;7.610;2023-08-06T05:04:22;2.00;;;1.63;;
10293;SDS011;5192;50.328;7.610;2023-08-06T05:06:48;3.20;;;1.60;;
10293;SDS011;5192;50.328;7.610;2023-08-06T05:09:16;2.00;;;1.30;;
10293;SDS011;5192;50.328;7.610;2023-08-06T05:11:43;1.50;;;1.40;;
10293;SDS011;5192;50.328;7.610;2023-08-06T05:14:11;1.60;;;1.50;;
10293;SDS011;5192;50.328;7.610;2023-08-06T05:16:39;1.60;;;1.50;;
10293;SDS011;5192;50.328;7.610;2023-08-06T05:19:07;3.27;;;1.40;;
10293;SDS011;5192;50.328;7.610;2023-08-06T05:21:36;1.70;;;1.60;;
10293;SDS011;5192;50.328;7.610;2023-08-06T05:24:04;2.07;;;1.50;;
10293;SDS011;5192;50.328;7.610;2023-08-06T05:26:33;2.20;;;1.23;;
10293;SDS011;5192;50.328;7.610;2023-08-06T05:29:02;1.57;;;1.43;;
10293;SDS011;5192;50.328;7.610;2023-08-06T05:31:29;2.17;;;1.20;;
10293;SDS011;5192;50.328;7.610;2023-08-06T05:33:56;2.23;;;1.60;;
10293;SDS011;5192;50.328;7.610;2023-08-06T05:36:27;1.80;;;1.27;;
10293;SDS011;5192;50.328;7.610;2023-08-06T05:38:54;1.60;;;1.20;;
10293;SDS011;5192;50.328;7.610;2023-08-06T05:41:22;1.27;;;1.10;;
10293;SDS011;5192;50.328;7.610;2023-08-06T05:43:49;1.40;;;1.10;;
10293;SDS011;5192;50.328;7.610;2023-08-06T05:46:15;2.33;;;1.10;;
10293;SDS011;5192;50.328;7.610;2023-08-06T05:48:43;2.53;;;1.17;;
10293;SDS011;5192;50.328;7.610;2023-08-06T05:51:08;1.90;;;1.00;;
10293;SDS011;5192;50.328;7.610;2023-08-06T05:53:39;1.20;;;1.10;;
10293;SDS011;5192;50.328;7.610;2023-08-06T05:56:05;2.10;;;1.00;;
10293;SDS011;5192;50.328;7.610;2023-08-06T05:58:34;3.13;;;1.00;;
10293;SDS011;5192;50.328;7.610;2023-08-06T06:01:01;1.03;;;0.93;;
10293;SDS011;5192;50.328;7.610;2023-08-06T06:03:28;0.83;;;0.83;;
10293;SDS011;5192;50.328;7.610;2023-08-06T06:05:55;1.93;;;0.80;;
10293;SDS011;5192;50.328;7.610;2023-08-06T06:08:21;0.80;;;0.73;;
10293;SDS011;5192;50.328;7.610;2023-08-06T06:10:47;1.07;;;0.87;;
10293;SDS011;5192;50.328;7.610;2023-08-06T06:13:15;2.50;;;0.80;;
10293;SDS011;5192;50.328;7.610;2023-08-06T06:15:41;1.20;;;0.70;;
10293;SDS011;5192;50.328;7.610;2023-08-06T06:18:09;0.90;;;0.63;;
10293;SDS011;5192;50.328;7.610;2023-08-06T06:20:36;2.13;;;0.80;;
10293;SDS011;5192;50.328;7.610;2023-08-06T06:23:03;1.17;;;0.80;;
10293;SDS011;5192;50.328;7.610;2023-08-06T06:25:28;0.97;;;0.83;;
10293;SDS011;5192;50.328;7.610;2023-08-06T06:27:56;1.37;;;0.67;;
10293;SDS011;5192;50.328;7.610;2023-08-06T06:30:25;0.97;;;0.87;;
10293;SDS011;5192;50.328;7.610;2023-08-06T06:32:51;1.33;;;0.83;;
10293;SDS011;5192;50.328;7.610;2023-08-06T06:35:18;0.67;;;0.67;;
10293;SDS011;5192;50.328;7.610;2023-08-06T06:37:46;1.27;;;0.80;;
10293;SDS011;5192;50.328;7.610;2023-08-06T06:40:13;1.23;;;0.50;;
10293;SDS011;5192;50.328;7.610;2023-08-06T06:42:40;0.80;;;0.80;;
10293;SDS011;5192;50.328;7.610;2023-08-06T06:45:08;0.60;;;0.60;;
10293;SDS011;5192;50.328;7.610;2023-08-06T06:47:38;0.60;;;0.60;;
10293;SDS011;5192;50.328;7.610;2023-08-06T06:50:08;0.90;;;0.70;;
10293;SDS011;5192;50.328;7.610;2023-08-06T06:52:35;0.83;;;0.57;;
10293;SDS011;5192;50.328;7.610;2023-08-06T06:55:02;0.73;;;0.50;;
10293;SDS011;5192;50.328;7.610;2023-08-06T06:57:28;2.17;;;0.77;;
10293;SDS011;5192;50.328;7.610;2023-08-06T06:59:56;0.60;;;0.60;;
10293;SDS011;5192;50.328;7.610;2023-08-06T07:02:24;0.50;;;0.50;;
10293;SDS011;5192;50.328;7.610;2023-08-06T07:04:51;0.83;;;0.50;;
10293;SDS011;5192;50.328;7.610;2023-08-06T07:07:16;2.13;;;0.70;;
10293;SDS011;5192;50.328;7.610;2023-08-06T07:09:43;1.53;;;0.50;;
10293;SDS011;5192;50.328;7.610;2023-08-06T07:12:12;1.70;;;0.70;;
10293;SDS011;5192;50.328;7.610;2023-08-06T07:14:39;2.10;;;0.67;;
10293;SDS011;5192;50.328;7.610;2023-08-06T07:17:05;1.03;;;0.70;;
10293;SDS011;5192;50.328;7.610;2023-08-06T07:19:33;1.30;;;0.77;;
10293;SDS011;5192;50.328;7.610;2023-08-06T07:22:06;0.60;;;0.60;;
10293;SDS011;5192;50.328;7.610;2023-08-06T07:24:33;0.80;;;0.63;;
10293;SDS011;5192;50.328;7.610;2023-08-06T07:27:00;0.60;;;0.60;;
10293;SDS011;5192;50.328;7.610;2023-08-06T07:29:30;0.73;;;0.60;;
10293;SDS011;5192;50.328;7.610;2023-08-06T07:31:56;0.50;;;0.50;;
10293;SDS011;5192;50.328;7.610;2023-08-06T07:34:24;1.00;;;0.80;;
10293;SDS011;5192;50.328;7.610;2023-08-06T07:36:51;1.57;;;0.70;;
10293;SDS011;5192;50.328;7.610;2023-08-06T07:39:19;0.70;;;0.70;;
10293;SDS011;5192;50.328;7.610;2023-08-06T07:41:45;2.27;;;0.90;;
10293;SDS011;5192;50.328;7.610;2023-08-06T07:44:13;0.83;;;0.73;;
10293;SDS011;5192;50.328;7.610;2023-08-06T07:46:40;0.73;;;0.73;;
10293;SDS011;5192;50.328;7.610;2023-08-06T07:49:09;0.70;;;0.70;;
10293;SDS011;5192;50.328;7.610;2023-08-06T07:51:38;1.90;;;0.80;;
10293;SDS011;5192;50.328;7.610;2023-08-06T07:54:05;1.83;;;0.80;;
10293;SDS011;5192;50.328;7.610;2023-08-06T07:56:32;2.20;;;0.70;;
10293;SDS011;5192;50.328;7.610;2023-08-06T07:59:02;1.08;;;0.80;;
10293;SDS011;5192;50.328;7.610;2023-08-06T08:01:29;1.08;;;0.70;;
10293;SDS011;5192;50.328;7.610;2023-08-06T08:03:55;0.90;;;0.70;;
10293;SDS011;5192;50.328;7.610;2023-08-06T08:06:23;2.17;;;0.70;;
10293;SDS011;5192;50.328;7.610;2023-08-06T08:08:52;2.35;;;1.17;;
10293;SDS011;5192;50.328;7.610;2023-08-06T08:11:20;1.30;;;0.80;;
10293;SDS011;5192;50.328;7.610;2023-08-06T08:13:45;1.90;;;0.70;;
10293;SDS011;5192;50.328;7.610;2023-08-06T08:16:13;2.55;;;0.70;;
10293;SDS011;5192;50.328;7.610;2023-08-06T08:18:41;1.00;;;0.90;;
10293;SDS011;5192;50.328;7.610;2023-08-06T08:21:08;0.93;;;0.70;;
10293;SDS011;5192;50.328;7.610;2023-08-06T08:23:36;0.60;;;0.60;;
10293;SDS011;5192;50.328;7.610;2023-08-06T08:26:05;1.47;;;0.60;;
10293;SDS011;5192;50.328;7.610;2023-08-06T08:28:32;2.53;;;1.83;;
10293;SDS011;5192;50.328;7.610;2023-08-06T08:30:58;0.70;;;0.70;;
10293;SDS011;5192;50.328;7.610;2023-08-06T08:33:27;0.87;;;0.60;;
10293;SDS011;5192;50.328;7.610;2023-08-06T08:35:56;0.70;;;0.70;;
10293;SDS011;5192;50.328;7.610;2023-08-06T08:38:24;0.60;;;0.60;;
10293;SDS011;5192;50.328;7.610;2023-08-06T08:40:53;0.70;;;0.70;;
10293;SDS011;5192;50.328;7.610;2023-08-06T08:43:24;0.90;;;0.60;;
10293;SDS011;5192;50.328;7.610;2023-08-06T08:45:53;1.57;;;0.60;;
10293;SDS011;5192;50.328;7.610;2023-08-06T08:48:28;0.60;;;0.60;;
10293;SDS011;5192;50.328;7.610;2023-08-06T08:50:55;3.33;;;2.83;;
10293;SDS011;5192;50.328;7.610;2023-08-06T08:53:22;1.10;;;1.00;;
10293;SDS011;5192;50.328;7.610;2023-08-06T08:55:52;0.77;;;0.67;;
10293;SDS011;5192;50.328;7.610;2023-08-06T08:58:18;0.90;;;0.57;;
10293;SDS011;5192;50.328;7.610;2023-08-06T09:00:45;0.87;;;0.60;;
10293;SDS011;5192;50.328;7.610;2023-08-06T09:03:15;0.60;;;0.60;;
10293;SDS011;5192;50.328;7.610;2023-08-06T09:05:44;0.97;;;0.67;;
10293;SDS011;5192;50.328;7.610;2023-08-06T09:08:15;0.50;;;0.50;;
10293;SDS011;5192;50.328;7.610;2023-08-06T09:10:46;1.77;;;0.60;;
10293;SDS011;5192;50.328;7.610;2023-08-06T09:13:14;0.68;;;0.68;;
10293;SDS011;5192;50.328;7.610;2023-08-06T09:15:42;0.63;;;0.63;;
10293;SDS011;5192;50.328;7.610;2023-08-06T09:18:12;0.70;;;0.70;;
10293;SDS011;5192;50.328;7.610;2023-08-06T09:20:39;0.70;;;0.70;;
10293;SDS011;5192;50.328;7.610;2023-08-06T09:23:11;1.73;;;0.75;;
10293;SDS011;5192;50.328;7.610;2023-08-06T09:25:38;0.60;;;0.60;;
10293;SDS011;5192;50.328;7.610;2023-08-06T09:28:06;0.70;;;0.70;;
10293;SDS011;5192;50.328;7.610;2023-08-06T09:33:22;0.70;;;0.70;;
10293;SDS011;5192;50.328;7.610;2023-08-06T09:35:49;0.93;;;0.60;;
10293;SDS011;5192;50.328;7.610;2023-08-06T09:38:17;1.33;;;1.05;;
10293;SDS011;5192;50.328;7.610;2023-08-06T09:40:44;1.93;;;1.10;;
10293;SDS011;5192;50.328;7.610;2023-08-06T09:43:13;0.90;;;0.90;;
10293;SDS011;5192;50.328;7.610;2023-08-06T09:45:39;0.87;;;0.80;;
10293;SDS011;5192;50.328;7.610;2023-08-06T09:48:07;4.30;;;1.10;;
10293;SDS011;5192;50.328;7.610;2023-08-06T09:50:36;3.37;;;0.90;;
10293;SDS011;5192;50.328;7.610;2023-08-06T09:53:05;1.90;;;0.87;;
10293;SDS011;5192;50.328;7.610;2023-08-06T09:55:33;1.37;;;0.80;;
10293;SDS011;5192;50.328;7.610;2023-08-06T09:58:00;4.07;;;1.20;;
10293;SDS011;5192;50.328;7.610;2023-08-06T10:00:28;1.67;;;1.05;;
10293;SDS011;5192;50.328;7.610;2023-08-06T10:02:59;1.57;;;1.03;;
10293;SDS011;5192;50.328;7.610;2023-08-06T10:05:30;1.75;;;1.20;;
10293;SDS011;5192;50.328;7.610;2023-08-06T10:08:01;2.10;;;1.90;;
10293;SDS011;5192;50.328;7.610;2023-08-06T10:10:28;2.57;;;1.70;;
10293;SDS011;5192;50.328;7.610;2023-08-06T10:12:55;1.43;;;1.00;;
10293;SDS011;5192;50.328;7.610;2023-08-06T10:15:28;0.97;;;0.93;;
10293;SDS011;5192;50.328;7.610;2023-08-06T10:17:57;1.20;;;1.10;;
10293;SDS011;5192;50.328;7.610;2023-08-06T10:20:26;1.00;;;0.90;;
10293;SDS011;5192;50.328;7.610;2023-08-06T10:23:01;2.00;;;1.10;;
10293;SDS011;5192;50.328;7.610;2023-08-06T10:25:46;2.20;;;0.97;;
10293;SDS011;5192;50.328;7.610;2023-08-06T10:28:33;1.77;;;0.80;;
10293;SDS011;5192;50.328;7.610;2023-08-06T10:31:05;0.70;;;0.70;;
10293;SDS011;5192;50.328;7.610;2023-08-06T10:33:41;0.87;;;0.83;;
10293;SDS011;5192;50.328;7.610;2023-08-06T10:36:14;1.07;;;0.90;;
10293;SDS011;5192;50.328;7.610;2023-08-06T10:38:47;0.80;;;0.80;;
10293;SDS011;5192;50.328;7.610;2023-08-06T10:41:16;0.80;;;0.80;;
10293;SDS011;5192;50.328;7.610;2023-08-06T10:44:05;1.73;;;1.10;;
10293;SDS011;5192;50.328;7.610;2023-08-06T10:46:36;0.90;;;0.90;;
10293;SDS011;5192;50.328;7.610;2023-08-06T10:49:04;2.03;;;1.07;;
10293;SDS011;5192;50.328;7.610;2023-08-06T10:51:33;1.20;;;1.10;;
10293;SDS011;5192;50.328;7.610;2023-08-06T10:54:01;2.37;;;1.03;;
10293;SDS011;5192;50.328;7.610;2023-08-06T10:56:30;1.17;;;0.90;;
10293;SDS011;5192;50.328;7.610;2023-08-06T10:59:07;0.50;;;0.50;;
10293;SDS011;5192;50.328;7.610;2023-08-06T11:01:37;3.33;;;0.87;;
10293;SDS011;5192;50.328;7.610;2023-08-06T11:04:06;1.37;;;0.60;;
10293;SDS011;5192;50.328;7.610;2023-08-06T11:06:34;0.60;;;0.60;;
10293;SDS011;5192;50.328;7.610;2023-08-06T11:09:01;0.93;;;0.80;;
10293;SDS011;5192;50.328;7.610;2023-08-06T11:11:32;0.70;;;0.70;;
10293;SDS011;5192;50.328;7.610;2023-08-06T11:14:00;2.03;;;0.80;;
10293;SDS011;5192;50.328;7.610;2023-08-06T11:16:27;1.13;;;0.80;;
10293;SDS011;5192;50.328;7.610;2023-08-06T11:18:55;2.10;;;0.70;;
10293;SDS011;5192;50.328;7.610;2023-08-06T11:21:25;2.40;;;1.30;;
10293;SDS011;5192;50.328;7.610;2023-08-06T11:23:53;1.70;;;1.20;;
10293;SDS011;5192;50.328;7.610;2023-08-06T11:26:19;0.80;;;0.80;;
10293;SDS011;5192;50.328;7.610;2023-08-06T11:28:47;1.60;;;1.40;;
10293;SDS011;5192;50.328;7.610;2023-08-06T11:31:21;1.43;;;1.27;;
10293;SDS011;5192;50.328;7.610;2023-08-06T11:33:53;1.30;;;1.20;;
10293;SDS011;5192;50.328;7.610;2023-08-06T11:36:36;2.90;;;1.53;;
10293;SDS011;5192;50.328;7.610;2023-08-06T11:39:07;3.17;;;1.30;;
10293;SDS011;5192;50.328;7.610;2023-08-06T11:41:35;1.00;;;0.90;;
10293;SDS011;5192;50.328;7.610;2023-08-06T11:44:04;1.27;;;0.80;;
10293;SDS011;5192;50.328;7.610;2023-08-06T11:46:49;1.40;;;1.03;;
10293;SDS011;5192;50.328;7.610;2023-08-06T11:49:43;0.83;;;0.83;;
10293;SDS011;5192;50.328;7.610;2023-08-06T11:55:06;0.90;;;0.80;;
10293;SDS011;5192;50.328;7.610;2023-08-06T11:57:39;0.80;;;0.80;;
10293;SDS011;5192;50.328;7.610;2023-08-06T12:02:55;3.80;;;2.50;;
10293;SDS011;5192;50.328;7.610;2023-08-06T12:05:23;2.00;;;1.73;;
10293;SDS011;5192;50.328;7.610;2023-08-06T12:07:59;1.40;;;1.30;;
10293;SDS011;5192;50.328;7.610;2023-08-06T12:10:32;3.10;;;1.60;;
10293;SDS011;5192;50.328;7.610;2023-08-06T12:13:02;2.63;;;1.33;;
10293;SDS011;5192;50.328;7.610;2023-08-06T12:15:30;1.93;;;1.10;;
10293;SDS011;5192;50.328;7.610;2023-08-06T12:17:57;1.30;;;1.20;;
10293;SDS011;5192;50.328;7.610;2023-08-06T12:20:25;1.00;;;1.00;;
10293;SDS011;5192;50.328;7.610;2023-08-06T12:22:54;3.27;;;1.80;;
10293;SDS011;5192;50.328;7.610;2023-08-06T12:25:21;1.03;;;1.00;;
10293;SDS011;5192;50.328;7.610;2023-08-06T12:27:50;2.17;;;1.20;;
10293;SDS011;5192;50.328;7.610;2023-08-06T12:30:16;1.20;;;0.80;;
10293;SDS011;5192;50.328;7.610;2023-08-06T12:32:43;1.00;;;0.90;;
10293;SDS011;5192;50.328;7.610;2023-08-06T12:35:09;1.50;;;0.90;;
10293;SDS011;5192;50.328;7.610;2023-08-06T12:37:35;1.40;;;0.83;;
10293;SDS011;5192;50.328;7.610;2023-08-06T12:40:10;1.53;;;0.90;;
10293;SDS011;5192;50.328;7.610;2023-08-06T12:42:37;0.90;;;0.90;;
10293;SDS011;5192;50.328;7.610;2023-08-06T12:45:04;1.57;;;0.97;;
10293;SDS011;5192;50.328;7.610;2023-08-06T12:47:30;3.13;;;1.07;;
10293;SDS011;5192;50.328;7.610;2023-08-06T12:49:55;1.33;;;1.00;;
10293;SDS011;5192;50.328;7.610;2023-08-06T12:52:23;2.50;;;0.90;;
10293;SDS011;5192;50.328;7.610;2023-08-06T12:54:50;2.47;;;1.03;;
10293;SDS011;5192;50.328;7.610;2023-08-06T12:57:16;1.93;;;0.93;;
10293;SDS011;5192;50.328;7.610;2023-08-06T12:59:44;1.03;;;0.90;;
10293;SDS011;5192;50.328;7.610;2023-08-06T13:02:14;2.80;;;1.10;;
10293;SDS011;5192;50.328;7.610;2023-08-06T13:04:42;1.77;;;1.10;;
10293;SDS011;5192;50.328;7.610;2023-08-06T13:07:07;2.10;;;1.10;;
10293;SDS011;5192;50.328;7.610;2023-08-06T13:09:37;1.33;;;1.23;;
10293;SDS011;5192;50.328;7.610;2023-08-06T13:12:05;3.93;;;1.80;;
10293;SDS011;5192;50.328;7.610;2023-08-06T13:14:33;1.47;;;1.27;;
10293;SDS011;5192;50.328;7.610;2023-08-06T13:17:01;1.20;;;1.10;;
10293;SDS011;5192;50.328;7.610;2023-08-06T13:19:35;1.60;;;1.07;;
10293;SDS011;5192;50.328;7.610;2023-08-06T13:22:03;1.83;;;1.40;;
10293;SDS011;5192;50.328;7.610;2023-08-06T13:24:32;1.43;;;1.13;;
10293;SDS011;5192;50.328;7.610;2023-08-06T13:27:00;1.80;;;1.20;;
10293;SDS011;5192;50.328;7.610;2023-08-06T13:29:27;2.13;;;1.20;;
10293;SDS011;5192;50.328;7.610;2023-08-06T13:31:54;1.83;;;1.23;;
10293;SDS011;5192;50.328;7.610;2023-08-06T13:34:21;1.23;;;1.13;;
10293;SDS011;5192;50.328;7.610;2023-08-06T13:36:46;2.33;;;1.40;;
10293;SDS011;5192;50.328;7.610;2023-08-06T13:39:14;2.77;;;1.17;;
10293;SDS011;5192;50.328;7.610;2023-08-06T13:41:44;1.57;;;1.23;;
10293;SDS011;5192;50.328;7.610;2023-08-06T13:44:14;2.03;;;1.10;;
10293;SDS011;5192;50.328;7.610;2023-08-06T13:46:41;1.40;;;1.10;;
10293;SDS011;5192;50.328;7.610;2023-08-06T13:49:09;0.90;;;0.90;;
10293;SDS011;5192;50.328;7.610;2023-08-06T13:51:36;1.10;;;1.10;;
10293;SDS011;5192;50.328;7.610;2023-08-06T13:54:04;2.10;;;0.90;;
10293;SDS011;5192;50.328;7.610;2023-08-06T13:56:32;3.83;;;2.30;;
10293;SDS011;5192;50.328;7.610;2023-08-06T13:59:00;1.00;;;0.90;;
10293;SDS011;5192;50.328;7.610;2023-08-06T14:01:27;2.00;;;1.00;;
10293;SDS011;5192;50.328;7.610;2023-08-06T14:03:54;2.60;;;1.13;;
10293;SDS011;5192;50.328;7.610;2023-08-06T14:06:21;0.73;;;0.67;;
10293;SDS011;5192;50.328;7.610;2023-08-06T14:08:49;0.83;;;0.60;;
10293;SDS011;5192;50.328;7.610;2023-08-06T14:11:16;2.40;;;0.80;;
10293;SDS011;5192;50.328;7.610;2023-08-06T14:13:44;2.07;;;0.77;;
10293;SDS011;5192;50.328;7.610;2023-08-06T14:16:10;1.87;;;0.80;;
10293;SDS011;5192;50.328;7.610;2023-08-06T14:18:37;0.70;;;0.70;;
10293;SDS011;5192;50.328;7.610;2023-08-06T14:21:07;0.93;;;0.70;;
10293;SDS011;5192;50.328;7.610;2023-08-06T14:23:35;4.77;;;2.70;;
10293;SDS011;5192;50.328;7.610;2023-08-06T14:26:04;0.97;;;0.80;;
10293;SDS011;5192;50.328;7.610;2023-08-06T14:28:33;1.20;;;0.97;;
10293;SDS011;5192;50.328;7.610;2023-08-06T14:31:00;2.37;;;1.00;;
10293;SDS011;5192;50.328;7.610;2023-08-06T14:33:28;2.33;;;1.20;;
10293;SDS011;5192;50.328;7.610;2023-08-06T14:35:56;1.87;;;1.10;;
10293;SDS011;5192;50.328;7.610;2023-08-06T14:38:24;1.90;;;1.00;;
10293;SDS011;5192;50.328;7.610;2023-08-06T14:40:50;2.07;;;1.13;;
10293;SDS011;5192;50.328;7.610;2023-08-06T14:43:19;1.10;;;1.00;;
10293;SDS011;5192;50.328;7.610;2023-08-06T14:45:46;1.20;;;1.10;;
10293;SDS011;5192;50.328;7.610;2023-08-06T14:48:13;2.53;;;1.00;;
10293;SDS011;5192;50.328;7.610;2023-08-06T14:50:40;1.00;;;0.80;;
10293;SDS011;5192;50.328;7.610;2023-08-06T14:53:10;2.87;;;0.90;;
10293;SDS011;5192;50.328;7.610;2023-08-06T14:55:39;1.10;;;1.00;;
10293;SDS011;5192;50.328;7.610;2023-08-06T14:58:09;0.97;;;0.90;;
10293;SDS011;5192;50.328;7.610;2023-08-06T15:00:35;2.73;;;0.90;;
10293;SDS011;5192;50.328;7.610;2023-08-06T15:03:02;1.80;;;1.20;;
10293;SDS011;5192;50.328;7.610;2023-08-06T15:05:30;1.30;;;0.80;;
10293;SDS011;5192;50.328;7.610;2023-08-06T15:07:56;1.73;;;0.90;;
10293;SDS011;5192;50.328;7.610;2023-08-06T15:10:23;0.80;;;0.80;;
10293;SDS011;5192;50.328;7.610;2023-08-06T15:12:53;1.67;;;0.97;;
10293;SDS011;5192;50.328;7.610;2023-08-06T15:15:20;1.70;;;1.13;;
10293;SDS011;5192;50.328;7.610;2023-08-06T15:17:49;4.00;;;1.10;;
10293;SDS011;5192;50.328;7.610;2023-08-06T15:20:17;2.90;;;1.00;;
10293;SDS011;5192;50.328;7.610;2023-08-06T15:22:43;2.30;;;1.13;;
10293;SDS011;5192;50.328;7.610;2023-08-06T15:25:12;1.33;;;1.00;;
10293;SDS011;5192;50.328;7.610;2023-08-06T15:27:39;1.43;;;0.87;;